Time;durP1;ratioP1;P1;durP2;ratioP2;P2;SDS_P1;SDS_P2;PMS_P1;PMS_P2;Temp;Humidity;BMP_temperature;BMP_pressure;BME280_temperature;BME280_humidity;BME280_pressure;Samples;Min_cycle;Max_cycle;Signal;HPM_P1;HPM_P2
2023/03/06 00:02:20;;;;;;;14.88;8.43;;;;;;;4.50;57.92;98852.81;4850935;29;20032;-92
2023/03/06 00:04:48;;;;;;;12.10;7.35;;;;;;;4.52;58.03;98850.72;4866257;29;20039;-93
2023/03/06 00:07:21;;;;;;;14.38;8.38;;;;;;;4.44;58.36;98851.91;4851508;29;20028;-94
2023/03/06 00:09:47;;;;;;;15.68;8.07;;;;;;;4.39;58.55;98843.84;4866779;29;20093;-92
2023/03/06 00:12:12;;;;;;;12.23;7.82;;;;;;;4.29;59.30;98857.00;4866431;29;20081;-93
2023/03/06 00:14:42;;;;;;;12.27;7.28;;;;;;;4.18;59.36;98856.00;4866909;29;20032;-93
2023/03/06 00:17:11;;;;;;;14.60;7.30;;;;;;;4.07;60.00;98849.69;4851577;29;20037;-94
2023/03/06 00:19:39;;;;;;;12.45;6.90;;;;;;;4.01;60.12;98853.31;4866778;29;20468;-92
2023/03/06 00:22:05;;;;;;;11.70;7.22;;;;;;;4.03;59.37;98849.34;4867272;29;20056;-92
2023/03/06 00:24:39;;;;;;;10.38;6.97;;;;;;;3.98;59.07;98824.47;4851691;29;20028;-93
2023/03/06 00:27:05;;;;;;;13.02;8.23;;;;;;;3.91;59.65;98821.97;4852695;29;20039;-94
2023/03/06 00:29:33;;;;;;;11.90;6.78;;;;;;;3.99;60.20;98842.88;4866585;29;20060;-93
2023/03/06 00:31:59;;;;;;;13.73;7.45;;;;;;;3.75;60.88;98842.16;4851993;29;20028;-93
2023/03/06 00:34:27;;;;;;;12.10;7.72;;;;;;;3.80;60.86;98836.13;4866467;29;20031;-92
2023/03/06 00:36:59;;;;;;;10.43;7.35;;;;;;;3.66;61.06;98824.16;4851515;29;20092;-93
2023/03/06 00:39:25;;;;;;;11.55;7.60;;;;;;;3.60;61.20;98834.69;4853570;29;20029;-93
2023/03/06 00:41:51;;;;;;;16.85;8.32;;;;;;;3.61;61.05;98833.66;4869629;29;20037;-94
2023/03/06 00:44:17;;;;;;;11.40;7.72;;;;;;;3.52;61.02;98827.06;4869645;29;20032;-93
2023/03/06 00:46:43;;;;;;;13.73;8.43;;;;;;;3.34;61.06;98819.25;4869560;29;20467;-93
2023/03/06 00:49:08;;;;;;;12.25;7.47;;;;;;;3.44;60.62;98828.25;4869717;29;20032;-93
2023/03/06 00:51:39;;;;;;;13.35;7.45;;;;;;;3.41;60.91;98836.69;4870165;29;20060;-93
2023/03/06 00:54:07;;;;;;;14.97;8.43;;;;;;;3.34;61.08;98845.84;4856092;29;20507;-93
2023/03/06 00:56:33;;;;;;;13.38;7.95;;;;;;;3.13;62.15;98824.13;4869948;29;20056;-93
2023/03/06 00:58:59;;;;;;;18.67;8.88;;;;;;;3.19;62.04;98833.84;4870589;29;20028;-93
2023/03/06 01:01:45;;;;;;;14.57;9.13;;;;;;;3.17;61.24;98832.47;4854176;29;20127;-94
2023/03/06 01:04:11;;;;;;;16.38;8.80;;;;;;;3.22;60.55;98827.25;4860045;29;20044;-93
2023/03/06 01:06:36;;;;;;;16.52;8.20;;;;;;;3.06;60.92;98822.66;4870497;29;20025;-94
2023/03/06 01:09:03;;;;;;;11.73;7.43;;;;;;;3.12;61.20;98833.16;4854082;29;20036;-93
2023/03/06 01:11:32;;;;;;;14.63;8.25;;;;;;;3.06;61.02;98822.66;4854775;29;20028;-93
2023/03/06 01:14:00;;;;;;;11.45;7.50;;;;;;;3.17;61.27;98835.13;4870039;29;20518;-93
2023/03/06 01:16:26;;;;;;;12.18;7.38;;;;;;;3.15;61.00;98834.53;4855355;29;20498;-94
2023/03/06 01:18:51;;;;;;;13.57;8.25;;;;;;;3.18;60.67;98834.09;4869874;29;20127;-93
2023/03/06 01:21:17;;;;;;;14.18;8.57;;;;;;;3.21;60.87;98820.31;4853696;29;20032;-94
2023/03/06 01:23:43;;;;;;;13.48;8.05;;;;;;;3.09;60.72;98812.34;4869542;29;20392;-92
2023/03/06 01:26:09;;;;;;;16.15;8.55;;;;;;;3.17;61.08;98827.94;4854350;29;20164;-93
2023/03/06 01:28:36;;;;;;;16.38;8.20;;;;;;;3.22;61.19;98835.25;4854539;29;20426;-94
2023/03/06 01:31:05;;;;;;;15.63;8.68;;;;;;;3.17;61.19;98835.13;4868884;29;20044;-93
2023/03/06 01:33:31;;;;;;;12.77;8.27;;;;;;;3.19;61.30;98835.69;4854687;29;20056;-93
2023/03/06 01:35:57;;;;;;;12.77;8.02;;;;;;;3.19;61.26;98831.19;4854080;29;20036;-94
2023/03/06 01:38:22;;;;;;;12.75;8.05;;;;;;;3.13;60.73;98816.16;4854053;29;20116;-93
2023/03/06 01:40:48;;;;;;;11.63;7.95;;;;;;;3.19;61.13;98820.53;4869321;29;20029;-92
2023/03/06 01:43:40;;;;;;;14.05;7.93;;;;;;;3.17;61.74;98835.91;4853822;29;20028;-92
2023/03/06 01:46:48;;;;;;;13.90;8.02;;;;;;;3.21;61.46;98852.22;4856719;29;20131;-92
2023/03/06 01:49:25;;;;;;;20.73;8.65;;;;;;;3.13;61.71;98842.75;4884046;29;20043;-93
2023/03/06 01:52:08;;;;;;;15.85;7.80;;;;;;;3.21;61.21;98846.91;4880175;29;20503;-93
2023/03/06 01:54:37;;;;;;;13.50;8.55;;;;;;;3.12;60.94;98846.47;4905866;29;20430;-93
2023/03/06 01:57:17;;;;;;;13.57;8.23;;;;;;;3.24;60.49;98849.13;4891813;29;20038;-93
2023/03/06 01:59:43;;;;;;;13.32;8.40;;;;;;;3.28;60.25;98839.63;4894496;29;20470;-94
2023/03/06 02:02:10;;;;;;;13.20;7.43;;;;;;;3.31;59.90;98849.78;4891176;29;20034;-93
2023/03/06 02:04:36;;;;;;;13.18;7.68;;;;;;;3.10;59.41;98832.59;4891030;29;20095;-93
2023/03/06 02:07:03;;;;;;;14.93;7.72;;;;;;;3.13;59.79;98831.31;4890451;29;20690;-94
2023/03/06 02:09:32;;;;;;;12.45;7.40;;;;;;;3.26;60.34;98848.88;4891446;29;20030;-93
2023/03/06 02:11:59;;;;;;;10.82;7.63;;;;;;;3.26;60.07;98833.75;4890646;29;20119;-93
2023/03/06 02:14:24;;;;;;;12.20;7.65;;;;;;;3.28;59.36;98831.66;4890235;29;20081;-93
2023/03/06 02:16:53;;;;;;;13.15;7.43;;;;;;;3.32;59.49;98837.28;4890058;29;20036;-93
2023/03/06 02:19:25;;;;;;;11.52;6.18;;;;;;;3.38;57.76;98847.00;4907679;29;20027;-93
2023/03/06 02:21:53;;;;;;;12.55;6.78;;;;;;;3.43;56.63;98847.13;4906345;29;20045;-93
2023/03/06 02:24:33;;;;;;;11.57;5.55;;;;;;;3.52;56.40;98856.34;4891166;29;20485;-93
2023/03/06 02:27:11;;;;;;;11.55;6.50;;;;;;;3.56;56.83;98862.00;4905156;29;20051;-93
2023/03/06 02:29:40;;;;;;;11.40;7.15;;;;;;;3.53;57.19;98851.81;4892010;29;20071;-93
2023/03/06 02:32:06;;;;;;;12.73;7.82;;;;;;;3.59;56.48;98858.88;4889530;29;20470;-92
2023/03/06 02:34:43;;;;;;;14.82;7.75;;;;;;;3.66;56.19;98862.22;4889703;29;20036;-93
2023/03/06 02:37:09;;;;;;;14.88;7.78;;;;;;;3.62;55.52;98839.78;4905467;29;20063;-93
2023/03/06 02:39:38;;;;;;;13.70;6.80;;;;;;;3.55;55.18;98842.59;4890016;29;20039;-93
2023/03/06 02:42:07;;;;;;;10.20;6.32;;;;;;;3.62;54.66;98848.56;4890389;29;20410;-92
2023/03/06 02:44:32;;;;;;;9.38;5.90;;;;;;;3.72;53.51;98855.97;4890435;29;20040;-94
2023/03/06 02:46:58;;;;;;;13.55;5.75;;;;;;;3.70;54.10;98857.25;4889886;29;20070;-94
2023/03/06 02:49:24;;;;;;;10.65;5.88;;;;;;;3.65;53.35;98841.94;4890132;29;20414;-93
2023/03/06 02:51:49;;;;;;;9.07;5.38;;;;;;;3.64;53.74;98840.34;4889356;29;20063;-93
2023/03/06 02:54:17;;;;;;;10.90;6.43;;;;;;;3.73;54.75;98848.78;4904837;29;20032;-93
2023/03/06 02:56:48;;;;;;;10.57;7.00;;;;;;;3.43;56.67;98842.59;4890419;29;20042;-93
2023/03/06 02:59:14;;;;;;;11.48;7.32;;;;;;;3.33;57.41;98860.22;4891027;29;20038;-92
2023/03/06 03:01:40;;;;;;;11.45;7.28;;;;;;;3.23;57.92;98855.47;4889675;29;20032;-93
2023/03/06 03:04:05;;;;;;;12.57;7.82;;;;;;;3.08;59.40;98853.28;4889623;29;20031;-93
2023/03/06 03:06:34;;;;;;;12.27;7.57;;;;;;;2.96;59.76;98863.13;4890051;29;20027;-93
2023/03/06 03:09:00;;;;;;;15.93;7.65;;;;;;;3.07;58.96;98867.63;4890543;29;20035;-93
2023/03/06 03:11:26;;;;;;;20.08;7.45;;;;;;;2.82;59.48;98842.09;4889621;29;20502;-93
2023/03/06 03:13:51;;;;;;;11.48;7.13;;;;;;;2.97;58.54;98865.56;4888967;29;20027;-94
2023/03/06 03:16:17;;;;;;;11.00;6.30;;;;;;;3.07;58.71;98874.78;4889370;29;20062;-93
2023/03/06 03:18:46;;;;;;;13.23;6.97;;;;;;;2.88;58.76;98863.47;4889595;29;20512;-93
2023/03/06 03:21:13;;;;;;;9.73;6.18;;;;;;;2.88;59.08;98863.47;4890244;29;20553;-93
2023/03/06 03:23:38;;;;;;;10.70;5.80;;;;;;;2.76;58.67;98863.44;4889292;29;20051;-92
2023/03/06 03:26:11;;;;;;;12.15;6.30;;;;;;;2.89;58.69;98873.88;4904835;29;20107;-92
2023/03/06 03:28:37;;;;;;;11.45;6.25;;;;;;;2.76;58.42;98856.31;4889369;29;20392;-93
2023/03/06 03:31:06;;;;;;;13.23;6.72;;;;;;;2.80;59.36;98873.41;4889157;29;20046;-93
2023/03/06 03:33:35;;;;;;;9.27;5.97;;;;;;;2.74;59.15;98878.81;4889875;29;20130;-93
2023/03/06 03:36:02;;;;;;;12.23;6.07;;;;;;;2.60;58.93;98860.44;4889976;29;20031;-93
2023/03/06 03:38:27;;;;;;;11.55;6.65;;;;;;;2.46;59.36;98861.69;4889366;29;20036;-93
2023/03/06 03:40:53;;;;;;;9.93;5.70;;;;;;;2.48;59.40;98874.75;4904509;29;20421;-93
2023/03/06 03:43:19;;;;;;;13.00;6.43;;;;;;;2.34;59.44;98863.50;4889306;29;20039;-93
2023/03/06 03:45:44;;;;;;;10.48;5.93;;;;;;;2.42;59.76;98879.13;4905450;29;20023;-94
2023/03/06 03:48:13;;;;;;;9.93;6.32;;;;;;;2.48;60.21;98886.19;4889050;29;20090;-91
2023/03/06 03:50:39;;;;;;;13.20;5.93;;;;;;;2.42;59.11;98873.81;4889580;29;20055;-93
2023/03/06 03:53:04;;;;;;;9.57;6.00;;;;;;;2.45;59.84;98884.00;4889038;29;20091;-92
2023/03/06 03:55:30;;;;;;;12.85;6.88;;;;;;;2.42;59.72;98882.56;4888691;29;20035;-93
2023/03/06 03:57:56;;;;;;;7.53;5.60;;;;;;;2.52;59.27;98890.00;4889288;29;20050;-93
2023/03/06 04:00:22;;;;;;;9.88;5.78;;;;;;;2.48;59.66;98882.72;4889786;29;20123;-92
2023/03/06 04:02:50;;;;;;;8.90;5.82;;;;;;;2.49;59.42;98871.03;4888989;29;20410;-93
2023/03/06 04:05:16;;;;;;;9.25;5.03;;;;;;;2.61;59.49;98883.34;4904843;29;20050;-92
2023/03/06 04:07:42;;;;;;;9.00;6.00;;;;;;;2.51;59.59;98861.00;4904310;29;20027;-93
2023/03/06 04:10:09;;;;;;;8.95;6.30;;;;;;;2.65;59.02;98880.19;4888897;29;20035;-91
2023/03/06 04:12:38;;;;;;;11.85;5.95;;;;;;;2.52;58.86;98879.38;4904460;29;20036;-93
2023/03/06 04:15:04;;;;;;;8.43;5.90;;;;;;;2.65;58.67;98872.22;4906786;29;20035;-94
2023/03/06 04:17:32;;;;;;;11.18;6.60;;;;;;;2.61;58.21;98879.84;4893356;29;20024;-93
2023/03/06 04:19:59;;;;;;;9.77;5.68;;;;;;;2.82;57.99;98889.94;4893183;29;20167;-93
2023/03/06 04:22:34;;;;;;;10.35;6.47;;;;;;;2.72;58.32;98862.28;4893441;29;20122;-93
2023/03/06 04:25:03;;;;;;;10.50;6.60;;;;;;;2.88;58.28;98885.53;4895654;29;20020;-93
2023/03/06 04:27:28;;;;;;;12.40;6.10;;;;;;;2.95;57.54;98885.44;4892631;29;20031;-93
2023/03/06 04:29:55;;;;;;;10.30;6.50;;;;;;;2.91;57.64;98879.78;4892820;29;20099;-93
2023/03/06 04:34:56;;;;;;;11.73;6.53;;;;;;;3.04;57.29;98894.69;5347620;23;20519;-92
2023/03/06 04:37:29;;;;;;;11.70;6.32;;;;;;;3.02;57.00;98891.44;4854961;29;20033;-94
2023/03/06 04:39:56;;;;;;;10.23;6.30;;;;;;;2.92;56.75;98884.03;4871172;29;20092;-93
2023/03/06 04:42:23;;;;;;;13.25;6.70;;;;;;;2.93;57.73;98883.00;4855411;29;20411;-92
2023/03/06 04:44:51;;;;;;;10.63;6.13;;;;;;;2.99;57.33;98891.94;4870681;29;20040;-93
2023/03/06 07:02:04;;;;;;;8.13;4.30;;;;;;;6.56;39.80;99017.50;1591546;23;20305;-86
2023/03/06 07:22:06;;;;;;;;;;;;;;;;;;;;;
2023/03/06 07:24:32;;;;;;;6.00;3.63;;;;;;;7.27;37.51;99020.06;4886784;29;20121;-96
2023/03/06 07:27:06;;;;;;;5.53;3.47;;;;;;;7.37;37.15;99025.50;4854010;29;20044;-96
2023/03/06 07:29:35;;;;;;;7.43;3.47;;;;;;;7.25;37.09;99016.81;4853997;29;20033;-96
2023/03/06 07:32:03;;;;;;;7.55;3.95;;;;;;;7.52;37.35;99042.75;4868711;29;20552;-93
2023/03/06 07:34:52;;;;;;;6.38;4.32;;;;;;;7.69;36.82;99046.09;4887101;29;20091;-96
2023/03/06 07:40:37;;;;;;;8.35;3.97;;;;;;;7.87;36.44;99036.81;5931944;23;20268;31
2023/03/06 08:06:19;;;;;;;9.25;5.10;;;;;;;8.48;35.12;99033.66;4904458;28;20056;-96
2023/03/06 08:08:46;;;;;;;7.93;4.05;;;;;;;8.55;34.59;99028.03;4875961;29;20029;-95
2023/03/06 08:11:12;;;;;;;10.40;4.93;;;;;;;8.55;34.89;99022.69;4876200;29;20039;-95
2023/03/06 08:13:39;;;;;;;7.07;4.22;;;;;;;8.71;35.12;99021.66;4872980;29;20395;-96
2023/03/06 08:26:29;;;;;;;7.90;5.38;;;;;;;8.70;34.14;99028.09;4823046;29;20137;-93
2023/03/06 08:32:18;;;;;;;7.53;3.50;;;;;;;8.89;34.31;99007.72;4933956;28;20067;-95
2023/03/06 08:35:03;;;;;;;15.25;8.73;;;;;;;9.20;33.51;99026.56;4844558;29;20045;-94
2023/03/06 08:37:30;;;;;;;7.75;4.75;;;;;;;9.14;33.77;99008.03;4823449;29;20039;-95
2023/03/06 08:40:52;;;;;;;10.63;3.78;;;;;;;9.19;33.40;98998.06;4821883;29;20529;-94
2023/03/06 09:02:43;;;;;;;6.03;4.00;;;;;;;9.64;32.67;99001.81;4777164;30;19921;-94
2023/03/06 09:05:24;;;;;;;11.18;5.10;;;;;;;9.79;32.00;99006.34;4801033;29;20098;-96
2023/03/06 09:08:09;;;;;;;7.38;4.32;;;;;;;9.75;32.24;99016.03;4868985;29;20029;-96
2023/03/06 09:21:59;;;;;;;10.98;4.45;;;;;;;9.97;32.12;99023.81;4928728;29;20043;-95
2023/03/06 09:25:23;;;;;;;;;;;;;;;;;;;;;
2023/03/06 10:02:50;;;;;;;7.93;4.40;;;;;;;10.64;31.38;99021.69;3046290;23;20365;-91
2023/03/06 10:05:22;;;;;;;7.53;4.85;;;;;;;10.42;31.49;99011.31;4905723;29;20130;-94
2023/03/06 10:08:04;;;;;;;;;;;;;;;10.51;31.85;99016.91;4892390;29;20030;-91
2023/03/06 10:11:01;;;;;;;6.50;4.20;;;;;;;10.61;31.54;99008.00;4908313;29;19918;-93
2023/03/06 10:13:55;;;;;;;6.50;4.50;;;;;;;10.59;31.95;99010.94;4929981;29;20040;-93
2023/03/06 10:23:14;;;;;;;8.82;4.30;;;;;;;11.12;30.98;98991.47;4941693;29;20574;-92
2023/03/06 10:26:02;;;;;;;8.50;4.70;;;;;;;11.13;31.66;98977.72;4907180;29;20024;-92
2023/03/06 10:28:50;;;;;;;8.35;4.30;;;;;;;11.21;31.28;98980.94;4892723;29;20031;-94
2023/03/06 10:31:27;;;;;;;10.02;4.95;;;;;;;11.28;30.47;98974.09;4893715;29;20028;-94
2023/03/06 10:44:37;;;;;;;6.57;4.05;;;;;;;11.43;30.23;98964.28;5064161;23;20475;-95
2023/03/06 10:48:01;;;;;;;8.20;5.30;;;;;;;11.45;30.44;98962.91;4909587;29;20408;-95
2023/03/06 10:55:06;;;;;;;;;;;;;;;;;;;;;
2023/03/06 11:03:30;;;;;;;7.20;4.63;;;;;;;11.61;30.49;98920.41;5147385;23;20039;-95
2023/03/06 11:12:31;;;;;;;10.10;4.90;;;;;;;11.46;30.91;98885.53;4942375;28;20486;-94
2023/03/06 11:15:22;;;;;;;8.80;4.43;;;;;;;11.65;30.44;98904.47;4925474;29;20032;-96
2023/03/06 11:18:24;;;;;;;7.90;4.45;;;;;;;11.80;30.56;98916.97;4891154;29;20040;-94
2023/03/06 11:20:53;;;;;;;8.27;4.43;;;;;;;11.85;30.18;98908.81;4899668;29;20040;-94
2023/03/06 11:23:57;;;;;;;15.38;5.10;;;;;;;11.95;30.17;98908.72;4888814;29;20040;-93
2023/03/06 11:39:42;;;;;;;8.45;4.03;;;;;;;12.40;29.82;98890.31;4845079;29;20543;-92
2023/03/06 11:42:47;;;;;;;7.03;4.20;;;;;;;12.41;29.81;98896.50;4891277;29;20044;-93
2023/03/06 11:45:27;;;;;;;7.13;4.07;;;;;;;12.31;30.37;98863.19;4859790;29;20042;-93
2023/03/06 11:48:40;;;;;;;7.38;4.47;;;;;;;12.51;29.37;98899.88;4893063;29;20036;-94
2023/03/06 11:51:30;;;;;;;6.97;4.05;;;;;;;12.31;29.61;98882.06;4909026;29;20439;-93
2023/03/06 11:54:04;;;;;;;8.85;4.85;;;;;;;12.26;30.49;98875.94;4889546;29;20164;-94
2023/03/06 11:57:04;;;;;;;8.68;4.60;;;;;;;12.20;30.64;98872.53;4874306;29;20044;-93
2023/03/06 12:00:00;;;;;;;9.40;4.65;;;;;;;12.37;30.44;98879.28;4853722;29;20051;-94
2023/03/06 12:02:47;;;;;;;9.80;6.68;;;;;;;12.46;30.81;98870.25;4846837;29;20064;-92
2023/03/06 12:05:36;;;;;;;6.70;4.22;;;;;;;12.57;29.83;98870.09;4845819;29;20025;-92
2023/03/06 12:11:43;;;;;;;7.30;4.40;;;;;;;12.64;30.04;98871.34;4820271;29;20134;-94
2023/03/06 12:14:51;;;;;;;12.95;4.88;;;;;;;12.53;30.19;98854.50;4868216;29;20029;-95
2023/03/06 12:17:37;;;;;;;8.73;4.05;;;;;;;12.64;30.25;98863.22;4833060;29;20511;-91
2023/03/06 12:20:33;;;;;;;7.15;4.40;;;;;;;12.58;30.79;98864.41;4915386;29;20623;-92
2023/03/06 12:23:20;;;;;;;6.82;4.43;;;;;;;12.72;30.28;98857.16;4891125;29;20035;-92
2023/03/06 12:26:11;;;;;;;12.48;4.60;;;;;;;12.69;30.14;98846.94;4921154;29;20086;-93
2023/03/06 12:28:54;;;;;;;8.27;4.63;;;;;;;12.74;30.58;98837.94;4906653;29;20024;-93
2023/03/06 12:32:12;;;;;;;11.43;4.78;;;;;;;12.88;29.88;98854.19;4907438;29;20032;-92
2023/03/06 12:35:25;;;;;;;8.50;4.38;;;;;;;12.76;30.27;98851.16;4921897;29;20028;-93
2023/03/06 12:38:19;;;;;;;10.60;4.30;;;;;;;12.79;30.35;98851.38;4926109;29;20114;-92
2023/03/06 12:41:06;;;;;;;7.22;4.30;;;;;;;12.86;30.47;98837.47;4924617;29;20031;-94
2023/03/06 12:43:46;;;;;;;9.57;4.82;;;;;;;12.96;30.27;98845.41;4908067;29;20031;-91
2023/03/06 12:46:17;;;;;;;18.65;8.95;;;;;;;12.90;30.19;98812.25;4936247;29;20032;-92
2023/03/06 12:48:52;;;;;;;51.75;26.35;;;;;;;13.04;29.84;98825.00;4890932;29;20031;-93
2023/03/06 12:51:17;;;;;;;15.80;10.02;;;;;;;12.97;30.15;98814.59;4906556;29;20055;-91
2023/03/06 12:53:45;;;;;;;8.23;5.38;;;;;;;13.09;29.85;98824.91;4891389;29;20036;-93
2023/03/06 12:56:13;;;;;;;9.65;4.20;;;;;;;12.98;29.54;98802.66;4904233;29;20051;-92
2023/03/06 12:58:50;;;;;;;6.80;4.15;;;;;;;13.11;29.28;98801.91;4901962;29;20397;-92
2023/03/06 13:01:25;;;;;;;7.07;4.28;;;;;;;13.23;29.72;98824.94;4916384;29;20028;-92
2023/03/06 13:04:30;;;;;;;9.63;4.80;;;;;;;13.29;29.71;98819.16;4931441;29;20043;-91
2023/03/06 13:07:21;;;;;;;8.57;5.03;;;;;;;13.13;30.13;98820.50;4908627;29;20034;-93
2023/03/06 13:10:24;;;;;;;10.20;4.75;;;;;;;13.19;29.82;98815.81;4907753;29;20034;-92
2023/03/06 13:13:05;;;;;;;6.75;4.38;;;;;;;12.99;30.16;98814.28;4892934;29;20028;-94
2023/03/06 13:18:45;;;;;;;8.82;4.80;;;;;;;13.02;30.07;98811.78;4845967;29;20034;-91
2023/03/06 13:22:20;;;;;;;;;;;;;;;;;;;;;
2023/03/06 13:25:15;;;;;;;7.00;4.47;;;;;;;13.11;30.36;98815.41;4889953;29;20097;-93
2023/03/06 13:30:45;;;;;;;8.13;4.10;;;;;;;13.10;30.16;98810.28;4885140;29;20033;-92
2023/03/06 13:33:33;;;;;;;10.30;4.80;;;;;;;13.03;30.32;98809.88;4868183;29;20045;-93
2023/03/06 13:46:52;;;;;;;8.68;4.40;;;;;;;13.11;30.30;98791.09;4838896;29;20112;-95
2023/03/06 13:49:20;;;;;;;9.98;4.38;;;;;;;13.13;30.17;98790.75;4869131;29;20112;-94
2023/03/06 13:52:07;;;;;;;10.65;4.50;;;;;;;13.23;30.24;98789.78;4854461;29;20179;-94
2023/03/06 14:02:23;;;;;;;7.60;4.22;;;;;;;13.28;29.88;98789.66;5063112;23;20063;-96
2023/03/06 14:05:39;;;;;;;9.98;4.38;;;;;;;13.20;29.67;98785.78;5031062;23;20115;-94
2023/03/06 14:09:04;;;;;;;8.02;4.38;;;;;;;13.22;30.11;98785.47;4891768;29;20056;-94
2023/03/06 14:17:41;;;;;;;8.25;4.07;;;;;;;13.18;30.14;98779.88;5615029;23;20048;-93
2023/03/06 14:20:15;;;;;;;9.82;4.85;;;;;;;13.10;30.03;98772.47;4922578;29;20043;-93
2023/03/06 14:22:42;;;;;;;9.23;4.45;;;;;;;13.00;30.30;98765.34;4890734;29;20593;-94
2023/03/06 14:25:23;;;;;;;7.70;4.43;;;;;;;12.98;30.65;98766.75;4891925;29;20031;-93
2023/03/06 14:27:52;;;;;;;8.23;4.30;;;;;;;13.01;30.34;98758.84;4890998;29;20439;-92
2023/03/06 14:30:21;;;;;;;9.25;4.15;;;;;;;12.96;30.07;98753.53;4893691;29;20042;-93
2023/03/06 14:32:50;;;;;;;7.30;4.28;;;;;;;12.96;30.52;98758.94;4902252;29;20032;-92
2023/03/06 14:35:30;;;;;;;7.68;4.18;;;;;;;12.79;30.62;98748.72;4889392;29;20427;-92
2023/03/06 14:37:58;;;;;;;9.00;4.15;;;;;;;12.88;29.98;98743.41;4891765;29;20442;-92
2023/03/06 14:40:29;;;;;;;7.93;4.28;;;;;;;13.01;30.20;98764.25;4890727;29;20050;-92
2023/03/06 14:43:21;;;;;;;9.00;5.50;;;;;;;13.11;30.59;98766.75;4887377;29;20040;-92
2023/03/06 14:46:10;;;;;;;7.28;3.90;;;;;;;13.08;30.22;98764.66;4912023;29;20043;-94
2023/03/06 14:48:44;;;;;;;7.22;4.13;;;;;;;13.02;30.13;98743.44;4890166;29;20074;-94
2023/03/06 14:51:25;;;;;;;7.43;4.00;;;;;;;13.03;30.28;98751.25;4889599;29;20035;-93
2023/03/06 14:53:51;;;;;;;9.18;4.65;;;;;;;12.93;30.62;98754.94;4897562;29;20023;-93
2023/03/06 14:59:55;;;;;;;8.13;4.57;;;;;;;13.03;30.69;98762.06;4912803;29;20510;-94
2023/03/06 15:02:57;;;;;;;;;;;;;;;;;;;;;
2023/03/06 15:08:45;;;;;;;;;;;;;;;;;;;;;
2023/03/06 15:11:14;;;;;;;7.95;4.28;;;;;;;12.71;31.41;98744.78;4894184;29;20118;-96
2023/03/06 15:14:08;;;;;;;8.73;4.35;;;;;;;12.81;31.27;98746.50;4875316;29;20035;-95
2023/03/06 15:17:13;;;;;;;6.90;3.97;;;;;;;12.92;31.39;98761.41;4892119;29;20036;-92
2023/03/06 15:19:49;;;;;;;10.88;4.65;;;;;;;12.84;31.21;98755.91;4887821;29;20048;-94
2023/03/06 15:23:02;;;;;;;7.65;4.38;;;;;;;12.84;31.51;98750.50;4874797;29;20102;-95
2023/03/06 15:29:07;;;;;;;10.13;5.68;;;;;;;12.85;31.86;98766.44;4832044;29;20034;-93
2023/03/06 15:31:32;;;;;;;10.73;5.00;;;;;;;12.45;32.54;98746.31;4848230;29;20137;-91
2023/03/06 15:37:57;;;;;;;8.38;5.13;;;;;;;12.46;32.45;98775.75;4857368;29;20189;-92
2023/03/06 15:58:58;;;;;;;10.60;5.68;;;;;;;12.10;33.63;98764.72;4909518;29;20053;-95
2023/03/06 16:01:28;;;;;;;9.77;5.47;;;;;;;12.03;33.53;98766.97;4883840;29;20061;-95
2023/03/06 16:34:48;;;;;;;11.23;6.13;;;;;;;11.79;35.32;98775.94;4949748;28;20051;-95
2023/03/06 16:37:14;;;;;;;13.00;7.35;;;;;;;11.81;34.84;98786.44;4915124;29;20048;-96
2023/03/06 16:39:39;;;;;;;16.02;6.90;;;;;;;11.70;35.42;98770.38;4912961;29;20024;-96
2023/03/06 16:42:25;;;;;;;14.85;7.00;;;;;;;11.89;35.30;98801.97;4913108;29;20090;-94
2023/03/06 16:55:28;;;;;;;19.83;9.10;;;;;;;11.27;36.71;98766.91;5151858;23;20112;-95
2023/03/06 16:58:29;;;;;;;25.75;9.35;;;;;;;11.29;37.04;98781.69;4893896;29;20043;-94
2023/03/06 17:04:20;;;;;;;20.80;12.00;;;;;;;11.12;37.03;98781.31;4911422;29;20044;-95
2023/03/06 17:06:51;;;;;;;16.55;9.55;;;;;;;11.08;37.18;98781.09;4896020;29;20028;-95
2023/03/06 17:09:17;;;;;;;29.85;16.10;;;;;;;11.00;37.71;98780.91;4880093;29;20031;-96
2023/03/06 17:12:03;;;;;;;18.70;9.77;;;;;;;11.05;37.25;98787.06;4882653;29;20419;-95
2023/03/06 17:14:37;;;;;;;19.15;9.18;;;;;;;10.87;37.16;98777.84;4917970;29;20063;-96
2023/03/06 17:17:16;;;;;;;25.58;12.38;;;;;;;10.97;37.51;98806.53;4901286;29;20072;-96
2023/03/06 17:23:28;;;;;;;17.50;8.10;;;;;;;10.90;37.69;98803.38;4904344;29;20040;-96
2023/03/06 17:28:55;;;;;;;20.88;9.60;;;;;;;10.77;38.29;98777.94;5055227;23;20059;-95
2023/03/06 17:31:23;;;;;;;21.63;9.55;;;;;;;10.62;38.81;98778.06;4911073;29;20039;-95
2023/03/06 17:34:08;;;;;;;;;;;;;;;;;;;;;
2023/03/06 17:36:43;;;;;;;22.95;10.00;;;;;;;10.61;39.26;98806.06;4930857;29;20470;-93
2023/03/06 17:39:18;;;;;;;17.52;9.32;;;;;;;10.47;39.54;98790.56;4908893;29;20483;-93
2023/03/06 17:41:44;;;;;;;17.00;10.25;;;;;;;10.45;39.15;98789.25;4909091;29;20035;-93
2023/03/06 17:44:10;;;;;;;20.60;11.07;;;;;;;10.51;38.98;98805.06;4908295;29;20028;-93
2023/03/06 17:46:36;;;;;;;23.75;11.77;;;;;;;10.38;39.35;98788.78;4908543;29;20110;-93
2023/03/06 17:49:02;;;;;;;20.67;10.88;;;;;;;10.30;39.95;98787.47;4908179;29;20031;-92
2023/03/06 17:51:28;;;;;;;25.30;9.57;;;;;;;10.15;41.41;98785.69;4907411;29;20482;-93
2023/03/06 17:53:54;;;;;;;27.70;12.50;;;;;;;9.81;42.65;98789.09;4908018;29;20482;-93
2023/03/06 17:56:20;;;;;;;22.27;8.68;;;;;;;9.68;41.83;98795.91;4923903;29;20488;-93
2023/03/06 17:58:49;;;;;;;20.30;8.52;;;;;;;9.66;41.28;98786.50;4906454;29;20043;-92
2023/03/06 18:01:18;;;;;;;16.52;7.80;;;;;;;9.71;41.22;98791.84;4907305;29;20379;-93
2023/03/06 18:03:51;;;;;;;24.67;9.02;;;;;;;9.67;41.44;98788.94;4907360;29;20030;-93
2023/03/06 18:06:16;;;;;;;22.10;8.40;;;;;;;9.81;41.33;98804.44;4907526;29;20031;-92
2023/03/06 18:08:45;;;;;;;19.58;8.70;;;;;;;9.79;41.84;98801.22;4907570;29;20031;-93
2023/03/06 18:11:11;;;;;;;17.02;8.38;;;;;;;9.81;41.95;98816.00;4906573;29;20031;-93
2023/03/06 18:13:38;;;;;;;21.95;9.82;;;;;;;9.74;41.91;98804.75;4906152;29;20037;-93
2023/03/06 18:16:04;;;;;;;22.13;10.80;;;;;;;9.71;42.12;98797.22;4906083;29;20024;-93
2023/03/06 18:18:30;;;;;;;29.40;12.02;;;;;;;9.74;42.34;98799.38;4905892;29;20071;-93
2023/03/06 18:20:55;;;;;;;31.35;11.55;;;;;;;9.82;42.51;98806.06;4906273;29;20032;-93
2023/03/06 18:23:21;;;;;;;24.75;11.60;;;;;;;9.81;42.28;98805.22;4905667;29;20067;-90
2023/03/06 18:25:47;;;;;;;26.15;14.02;;;;;;;9.73;43.09;98791.56;4906146;29;20015;-90
2023/03/06 18:28:12;;;;;;;17.42;8.60;;;;;;;9.63;43.00;98797.78;4906715;29;20060;-90
2023/03/06 18:30:42;;;;;;;17.98;9.38;;;;;;;9.59;43.35;98794.88;4906216;29;20082;-92
2023/03/06 18:33:08;;;;;;;28.05;9.98;;;;;;;9.55;44.15;98806.47;4905845;29;20038;-93
2023/03/06 18:35:33;;;;;;;27.05;12.38;;;;;;;9.47;44.04;98795.19;4906296;29;20034;-92
2023/03/06 18:37:59;;;;;;;23.63;12.40;;;;;;;9.62;43.47;98799.69;4905688;29;20039;-92
2023/03/06 18:40:24;;;;;;;27.48;10.95;;;;;;;9.40;44.42;98778.56;4905880;29;20035;-92
2023/03/06 18:42:53;;;;;;;24.73;11.35;;;;;;;9.55;44.54;98803.78;4905894;29;20474;-92
2023/03/06 18:45:19;;;;;;;36.50;19.20;;;;;;;9.62;44.24;98813.13;4890056;29;20051;-92
2023/03/06 18:47:44;;;;;;;35.95;13.23;;;;;;;9.59;44.59;98807.53;4906840;29;20055;-92
2023/03/06 18:50:15;;;;;;;29.00;12.07;;;;;;;9.49;44.87;98790.34;4904897;29;20107;-92
2023/03/06 18:52:41;;;;;;;33.70;12.93;;;;;;;9.67;44.37;98802.38;4905738;29;20508;-92
2023/03/06 18:55:45;;;;;;;23.65;13.25;;;;;;;9.53;44.35;98765.63;4906079;29;20039;-92
2023/03/06 18:58:31;;;;;;;30.80;14.75;;;;;;;9.68;44.35;98800.47;4910695;29;20378;-92
2023/03/06 19:01:06;;;;;;;35.85;15.88;;;;;;;9.44;45.53;98785.00;4882139;29;20596;-92
2023/03/06 19:03:32;;;;;;;39.78;18.38;;;;;;;9.48;45.80;98793.31;4868602;29;20464;-92
2023/03/06 19:06:05;;;;;;;38.38;17.00;;;;;;;9.38;45.56;98782.59;4868002;29;20116;-92
2023/03/06 19:08:31;;;;;;;37.50;16.75;;;;;;;9.32;46.23;98792.56;4867384;29;20029;-92
2023/03/06 19:11:00;;;;;;;33.05;16.00;;;;;;;9.29;46.14;98785.84;4866596;29;20079;-92
2023/03/06 19:13:26;;;;;;;32.00;17.63;;;;;;;9.40;46.02;98799.25;4866936;29;20528;-91
2023/03/06 19:15:55;;;;;;;40.08;20.20;;;;;;;9.30;46.05;98783.97;4866668;29;20041;-92
2023/03/06 19:18:24;;;;;;;35.03;17.13;;;;;;;9.32;46.35;98797.94;4867631;29;20036;-93
2023/03/06 19:20:51;;;;;;;28.38;14.48;;;;;;;9.18;47.03;98786.16;4882465;29;20037;-91
2023/03/06 19:23:17;;;;;;;32.42;14.75;;;;;;;9.03;46.73;98765.53;4897643;29;20068;-92